Time;durP1;ratioP1;P1;durP2;ratioP2;P2;SDS_P1;SDS_P2;PMS_P1;PMS_P2;Temp;Humidity;BMP_temperature;BMP_pressure;BME280_temperature;BME280_humidity;BME280_pressure;Samples;Min_cycle;Max_cycle;Signal;HPM_P1;HPM_P2
2022/04/03 00:00:19;;;;;;;28.38;13.30;;;;;;;2.11;100.00;98788.97;4480912;32;35416;-78
2022/04/03 00:03:05;;;;;;;27.30;13.50;;;;;;;1.95;100.00;98792.78;4467283;32;34254;-79
2022/04/03 00:05:52;;;;;;;26.27;13.52;;;;;;;1.55;100.00;98786.41;4477506;32;34676;-79
2022/04/03 00:08:38;;;;;;;24.98;13.27;;;;;;;2.10;100.00;98786.50;4480220;32;35839;-79
2022/04/03 00:11:25;;;;;;;27.15;13.13;;;;;;;1.60;100.00;98794.50;4466569;31;34406;-79
2022/04/03 00:14:12;;;;;;;28.45;13.57;;;;;;;1.49;100.00;98801.00;4469537;32;35359;-78
2022/04/03 00:16:58;;;;;;;28.58;14.00;;;;;;;2.03;100.00;98800.31;4468513;32;34627;-78
2022/04/03 00:19:45;;;;;;;29.08;13.85;;;;;;;2.24;100.00;98796.44;4479848;32;36293;-78
2022/04/03 00:22:31;;;;;;;24.08;11.43;;;;;;;2.24;100.00;98801.84;4458630;32;33587;-78
2022/04/03 00:25:18;;;;;;;22.55;11.15;;;;;;;1.91;100.00;98799.84;4481723;32;34289;-77
2022/04/03 00:28:04;;;;;;;22.23;10.88;;;;;;;1.87;100.00;98806.84;4468365;32;34683;-77
2022/04/03 00:30:50;;;;;;;21.33;10.55;;;;;;;1.89;100.00;98813.59;4467783;32;34970;-77
2022/04/03 00:33:37;;;;;;;21.92;10.43;;;;;;;1.90;100.00;98811.72;4481353;32;35440;-77
2022/04/03 00:36:24;;;;;;;22.27;10.43;;;;;;;1.82;100.00;98807.66;4480313;32;34133;-77
2022/04/03 00:39:11;;;;;;;20.65;10.32;;;;;;;2.06;100.00;98812.47;4468588;32;35507;-77
2022/04/03 00:41:58;;;;;;;20.35;10.13;;;;;;;2.04;100.00;98812.75;4480777;32;35117;-77
2022/04/03 00:44:44;;;;;;;22.65;10.68;;;;;;;1.71;100.00;98816.91;4480046;31;34588;-76
2022/04/03 00:47:31;;;;;;;23.40;11.35;;;;;;;1.92;100.00;98825.75;4468905;32;34248;-77
2022/04/03 00:50:17;;;;;;;21.15;9.93;;;;;;;2.21;100.00;98829.44;4479074;32;34630;-77
2022/04/03 00:53:05;;;;;;;19.42;10.05;;;;;;;2.12;100.00;98825.69;4468039;32;34572;-77
2022/04/03 00:55:51;;;;;;;21.52;9.68;;;;;;;1.60;100.00;98826.91;4467686;32;34835;-77
2022/04/03 00:58:38;;;;;;;19.58;9.80;;;;;;;2.16;100.00;98834.06;4455746;32;35101;-77
2022/04/03 01:01:24;;;;;;;21.05;9.88;;;;;;;1.49;100.00;98828.78;4478097;32;34567;-77
2022/04/03 01:04:11;;;;;;;19.98;9.85;;;;;;;1.85;100.00;98838.72;4457341;32;34630;-77
2022/04/03 01:06:58;;;;;;;20.35;9.52;;;;;;;1.82;100.00;98841.97;4479216;32;35246;-77
2022/04/03 01:09:45;;;;;;;22.17;10.77;;;;;;;2.28;100.00;98841.84;4468434;32;34239;-77
2022/04/03 01:12:32;;;;;;;17.40;9.48;;;;;;;2.36;100.00;98846.69;4468667;32;34447;-77
2022/04/03 01:15:35;;;;;;;19.95;10.38;;;;;;;1.19;100.00;98853.88;4469136;32;35596;-77
2022/04/03 01:18:24;;;;;;;23.73;10.45;;;;;;;1.53;100.00;98850.66;4467580;32;34632;-77
2022/04/03 01:21:11;;;;;;;22.08;10.25;;;;;;;1.64;100.00;98856.84;4467450;32;35137;-77
2022/04/03 01:23:57;;;;;;;20.05;9.98;;;;;;;1.82;100.00;98853.59;4458274;32;34685;-77
2022/04/03 01:26:44;;;;;;;21.15;10.30;;;;;;;1.70;100.00;98855.75;4469289;32;34649;-77
2022/04/03 01:29:30;;;;;;;20.75;10.38;;;;;;;1.49;100.00;98857.69;4457149;32;34105;-77
2022/04/03 01:32:16;;;;;;;23.55;10.80;;;;;;;1.76;100.00;98860.88;4481102;32;34212;-77
2022/04/03 01:35:04;;;;;;;18.65;9.98;;;;;;;2.34;100.00;98868.59;4467334;32;34186;-77
2022/04/03 01:37:50;;;;;;;20.27;9.95;;;;;;;2.20;100.00;98862.97;4468311;32;34479;-77
2022/04/03 01:40:37;;;;;;;20.23;10.20;;;;;;;2.54;98.59;98858.81;4480247;32;34706;-77
2022/04/03 01:43:23;;;;;;;19.50;10.18;;;;;;;2.38;99.24;98876.97;4468557;32;34235;-77
2022/04/03 01:46:10;;;;;;;19.92;9.63;;;;;;;2.44;99.75;98873.97;4467277;32;35550;-77
2022/04/03 01:48:56;;;;;;;19.37;9.52;;;;;;;1.96;100.00;98878.97;4468102;32;36010;-77
2022/04/03 01:51:42;;;;;;;23.15;11.12;;;;;;;2.45;100.00;98877.50;4467232;32;35525;-77
2022/04/03 01:54:28;;;;;;;20.60;9.93;;;;;;;2.41;99.13;98884.53;4479891;32;34359;-77
2022/04/03 01:57:14;;;;;;;22.87;10.85;;;;;;;2.20;98.82;98881.88;4467476;32;34583;-77
2022/04/03 02:00:06;;;;;;;23.67;11.35;;;;;;;2.06;100.00;98888.16;4467068;32;34974;-77
2022/04/03 02:02:54;;;;;;;19.83;10.77;;;;;;;1.75;100.00;98894.38;4468120;32;34417;-77
2022/04/03 02:05:40;;;;;;;20.50;9.85;;;;;;;1.80;100.00;98898.97;4479509;32;33924;-77
2022/04/03 02:08:27;;;;;;;20.58;10.43;;;;;;;2.42;100.00;98896.94;4480155;32;35615;-76
2022/04/03 02:11:15;;;;;;;20.88;10.65;;;;;;;2.67;98.91;98913.09;4468136;32;35865;-77
2022/04/03 02:14:01;;;;;;;21.75;10.93;;;;;;;2.79;98.71;98893.00;4468081;32;34606;-77
2022/04/03 02:16:47;;;;;;;20.65;10.10;;;;;;;2.72;98.78;98904.16;4467704;32;34302;-76
2022/04/03 02:19:34;;;;;;;21.90;11.05;;;;;;;2.18;99.67;98900.25;4480131;32;35191;-77
2022/04/03 02:22:20;;;;;;;23.92;10.82;;;;;;;1.41;100.00;98894.13;4467596;32;34956;-77
2022/04/03 02:25:11;;;;;;;25.17;12.30;;;;;;;0.95;100.00;98904.03;4481169;32;34294;-76
2022/04/03 02:28:01;;;;;;;43.53;14.02;;;;;;;1.11;100.00;98902.97;4478953;32;34363;-76
2022/04/03 02:30:48;;;;;;;29.48;13.82;;;;;;;0.07;100.00;98904.72;4456760;32;34677;-76
2022/04/03 02:33:35;;;;;;;27.20;12.15;;;;;;;-0.31;100.00;98914.69;4455889;32;34956;-77
2022/04/03 02:36:21;;;;;;;22.58;10.30;;;;;;;0.36;100.00;98908.63;4479226;32;35446;-76
2022/04/03 02:39:07;;;;;;;18.62;8.52;;;;;;;0.72;100.00;98916.91;4481322;31;34209;-77
2022/04/03 02:41:54;;;;;;;22.23;9.75;;;;;;;0.65;100.00;98910.91;4465907;32;34274;-77
2022/04/03 02:44:40;;;;;;;20.20;9.40;;;;;;;-0.22;100.00;98923.91;4466440;32;34743;-77
2022/04/03 02:47:27;;;;;;;22.52;9.75;;;;;;;-0.10;100.00;98916.44;4479458;31;34631;-77
2022/04/03 02:50:15;;;;;;;24.90;10.95;;;;;;;0.08;100.00;98930.56;4457359;32;33794;-77
2022/04/03 02:53:01;;;;;;;22.42;9.68;;;;;;;0.89;100.00;98930.19;4479773;32;34624;-77
2022/04/03 02:55:47;;;;;;;23.17;10.50;;;;;;;0.08;100.00;98939.47;4480058;32;35988;-77
2022/04/03 02:58:33;;;;;;;29.42;12.90;;;;;;;0.35;100.00;98944.75;4466902;32;35592;-77
2022/04/03 03:01:20;;;;;;;25.45;11.90;;;;;;;0.12;100.00;98945.97;4465482;32;34432;-77
2022/04/03 03:04:06;;;;;;;25.10;11.85;;;;;;;0.63;100.00;98948.16;4478515;31;35420;-77
2022/04/03 03:06:53;;;;;;;25.00;11.23;;;;;;;0.71;100.00;98952.19;4467088;32;34421;-77
2022/04/03 03:09:40;;;;;;;21.25;9.68;;;;;;;0.75;100.00;98959.50;4479278;32;35244;-77
2022/04/03 03:12:26;;;;;;;14.65;7.70;;;;;;;1.29;100.00;98958.34;4475485;32;35070;-77
2022/04/03 03:15:13;;;;;;;14.18;7.15;;;;;;;1.76;100.00;98962.72;4466992;32;34558;-77
2022/04/03 03:17:59;;;;;;;12.30;6.10;;;;;;;1.95;100.00;98969.19;4467271;32;34943;-76
2022/04/03 03:20:46;;;;;;;11.60;6.00;;;;;;;2.16;100.00;98971.87;4465200;32;35525;-76
2022/04/03 03:23:32;;;;;;;11.50;5.90;;;;;;;2.32;100.00;98978.91;4478612;32;34093;-76
2022/04/03 03:26:20;;;;;;;10.32;5.65;;;;;;;1.87;100.00;98980.53;4466028;32;34670;-76
2022/04/03 03:29:08;;;;;;;9.25;5.68;;;;;;;2.30;100.00;98982.97;4478852;32;35042;-76
2022/04/03 03:31:55;;;;;;;9.73;5.25;;;;;;;1.86;100.00;98988.94;4456496;32;35139;-76
2022/04/03 03:34:41;;;;;;;12.75;6.18;;;;;;;1.02;100.00;98993.59;4478983;32;33896;-76
2022/04/03 03:37:27;;;;;;;10.68;5.40;;;;;;;0.89;100.00;98995.72;4465733;32;35496;-75
2022/04/03 03:40:14;;;;;;;11.32;5.62;;;;;;;0.93;100.00;98997.88;4467553;32;33924;-76
2022/04/03 03:43:01;;;;;;;12.77;6.30;;;;;;;0.41;100.00;98997.59;4480319;32;34919;-75
2022/04/03 03:45:47;;;;;;;12.15;6.32;;;;;;;0.38;100.00;99006.22;4458436;32;34185;-75
2022/04/03 03:48:34;;;;;;;12.05;6.30;;;;;;;-0.16;100.00;99000.97;4481343;32;34340;-75
2022/04/03 03:51:20;;;;;;;11.82;5.95;;;;;;;0.57;100.00;99009.31;4469240;32;35676;-75
2022/04/03 03:54:07;;;;;;;13.20;6.90;;;;;;;0.46;100.00;99007.63;4481978;31;34828;-75
2022/04/03 03:56:53;;;;;;;13.68;6.78;;;;;;;0.65;100.00;99018.78;4467668;32;35822;-75
2022/04/03 03:59:40;;;;;;;14.60;6.32;;;;;;;0.52;100.00;99019.25;4482079;32;35245;-75
2022/04/03 04:02:26;;;;;;;12.93;7.05;;;;;;;0.48;100.00;99027.03;4480979;32;35030;-75
2022/04/03 04:05:13;;;;;;;15.48;7.50;;;;;;;0.41;100.00;99029.16;4477892;32;34518;-75
2022/04/03 04:07:59;;;;;;;13.88;7.03;;;;;;;0.20;100.00;99039.78;4481107;32;35178;-75
2022/04/03 04:10:46;;;;;;;13.95;7.32;;;;;;;0.29;100.00;99040.13;4456555;32;35604;-75
2022/04/03 04:13:32;;;;;;;14.63;7.30;;;;;;;0.20;100.00;99038.97;4478738;32;35930;-75
2022/04/03 04:16:19;;;;;;;13.73;7.57;;;;;;;0.34;100.00;99047.41;4469008;32;34356;-75
2022/04/03 04:19:06;;;;;;;15.50;7.25;;;;;;;-0.03;100.00;99054.41;4482139;32;33747;-75
2022/04/03 04:21:52;;;;;;;15.70;7.03;;;;;;;0.13;100.00;99049.94;4469049;32;34700;-75
2022/04/03 04:24:38;;;;;;;14.00;6.70;;;;;;;-0.08;100.00;99059.75;4469491;32;35005;-75
2022/04/03 04:27:25;;;;;;;16.17;7.62;;;;;;;0.11;100.00;99059.34;4481022;32;34181;-75
2022/04/03 04:30:13;;;;;;;17.12;7.87;;;;;;;-0.18;100.00;99062.31;4480830;32;35214;-75
2022/04/03 04:32:59;;;;;;;16.45;7.25;;;;;;;-0.08;100.00;99067.81;4468826;32;35515;-75
2022/04/03 04:35:45;;;;;;;16.37;9.23;;;;;;;-0.18;100.00;99075.78;4457419;32;35082;-76
2022/04/03 04:38:32;;;;;;;16.77;8.45;;;;;;;-0.42;100.00;99080.66;4470644;31;35555;-75
2022/04/03 04:41:18;;;;;;;18.65;7.93;;;;;;;-0.62;100.00;99096.59;4479948;31;33693;-76
2022/04/03 04:44:05;;;;;;;18.92;8.25;;;;;;;-0.66;100.00;99096.25;4480398;32;34687;-76
2022/04/03 04:46:52;;;;;;;17.12;8.35;;;;;;;-0.39;100.00;99098.19;4480588;32;36028;-76
2022/04/03 04:49:39;;;;;;;16.80;8.18;;;;;;;-0.69;100.00;99105.62;4481448;32;34847;-76
2022/04/03 04:52:25;;;;;;;21.00;8.45;;;;;;;-0.26;100.00;99111.25;4457276;32;34368;-76
2022/04/03 04:55:11;;;;;;;20.75;9.00;;;;;;;-0.46;100.00;99115.34;4480157;32;35535;-76
2022/04/03 04:57:57;;;;;;;17.92;8.50;;;;;;;-0.56;100.00;99115.22;4467570;32;35082;-76
2022/04/03 05:00:45;;;;;;;19.48;8.18;;;;;;;-0.52;100.00;99124.41;4467395;32;34706;-76
2022/04/03 05:03:31;;;;;;;18.33;7.68;;;;;;;-0.55;100.00;99129.50;4468356;32;34188;-76
2022/04/03 05:06:18;;;;;;;17.70;7.43;;;;;;;-0.17;100.00;99125.91;4469878;32;34337;-76
2022/04/03 05:09:05;;;;;;;19.33;7.75;;;;;;;-0.46;100.00;99136.88;4458780;32;34555;-76
2022/04/03 05:11:52;;;;;;;19.12;8.82;;;;;;;-0.47;100.00;99137.94;4456937;32;34642;-75
2022/04/03 05:14:38;;;;;;;14.93;7.47;;;;;;;-0.81;100.00;99136.44;4466141;31;34228;-76
2022/04/03 05:17:26;;;;;;;16.62;7.75;;;;;;;-0.70;100.00;99143.56;4469467;32;35014;-76
2022/04/03 05:20:14;;;;;;;20.17;8.05;;;;;;;-0.72;100.00;99138.41;4480403;32;34438;-75
2022/04/03 05:23:00;;;;;;;16.37;8.32;;;;;;;-0.65;100.00;99154.41;4458084;32;35405;-76
2022/04/03 05:25:46;;;;;;;20.23;8.98;;;;;;;-0.67;100.00;99148.44;4479368;32;34173;-76
2022/04/03 05:28:32;;;;;;;15.73;6.60;;;;;;;-0.57;100.00;99164.75;4479887;32;36285;-76
2022/04/03 05:31:19;;;;;;;15.73;7.12;;;;;;;-0.03;100.00;99158.62;4479615;31;33934;-76
2022/04/03 05:34:05;;;;;;;14.57;6.40;;;;;;;0.07;100.00;99160.63;4479240;32;34219;-76
2022/04/03 05:36:51;;;;;;;14.45;6.53;;;;;;;0.30;100.00;99163.00;4480710;32;34176;-75
2022/04/03 05:39:37;;;;;;;16.52;7.60;;;;;;;0.19;100.00;99170.16;4480032;32;34771;-75
2022/04/03 05:42:23;;;;;;;13.88;6.40;;;;;;;0.04;100.00;99185.37;4468253;32;34838;-75
2022/04/03 05:45:10;;;;;;;12.50;6.07;;;;;;;-0.09;100.00;99184.66;4479442;32;35821;-74
2022/04/03 05:47:56;;;;;;;14.15;6.62;;;;;;;0.02;100.00;99171.34;4456900;31;34300;-74
2022/04/03 05:50:44;;;;;;;14.07;6.82;;;;;;;-0.06;100.00;99186.88;4478890;31;34158;-74
2022/04/03 05:53:31;;;;;;;14.68;7.22;;;;;;;-0.54;100.00;99193.84;4479037;31;35204;-74
2022/04/03 05:56:17;;;;;;;15.45;7.87;;;;;;;-0.27;100.00;99195.78;4468113;31;37274;-75
2022/04/03 05:59:04;;;;;;;17.95;7.60;;;;;;;-0.46;100.00;99197.97;4468390;32;33783;-73
2022/04/03 06:01:50;;;;;;;16.95;8.55;;;;;;;-0.35;100.00;99199.72;4480110;31;35383;-72
2022/04/03 06:04:36;;;;;;;20.37;9.40;;;;;;;-0.59;100.00;99209.91;4467317;32;35001;-73
2022/04/03 06:07:23;;;;;;;19.48;9.77;;;;;;;-0.69;100.00;99209.75;4476516;32;34133;-73
2022/04/03 06:10:10;;;;;;;20.73;11.32;;;;;;;-0.57;100.00;99213.19;4479782;32;34180;-73
2022/04/03 06:13:00;;;;;;;22.08;11.88;;;;;;;-0.59;100.00;99219.88;4458307;32;34565;-73
2022/04/03 06:15:48;;;;;;;18.62;10.68;;;;;;;-0.65;100.00;99221.66;4466566;32;35617;-73
2022/04/03 06:18:34;;;;;;;25.83;13.60;;;;;;;-0.88;100.00;99228.06;4468411;32;35525;-73
2022/04/03 06:21:22;;;;;;;27.65;13.62;;;;;;;-0.83;100.00;99228.12;4478348;32;35199;-74
2022/04/03 06:24:10;;;;;;;24.92;13.05;;;;;;;-0.68;100.00;99224.84;4456266;32;34646;-74
2022/04/03 06:26:57;;;;;;;27.17;13.15;;;;;;;-0.60;100.00;99237.88;4478835;32;35783;-73
2022/04/03 06:29:44;;;;;;;26.73;13.02;;;;;;;-0.52;100.00;99237.44;4479882;32;34225;-73
2022/04/03 06:32:34;;;;;;;26.23;12.88;;;;;;;-0.39;100.00;99246.25;4446703;32;33770;-74
2022/04/03 06:35:20;;;;;;;24.33;14.35;;;;;;;-0.54;100.00;99250.34;4480236;32;34642;-74
2022/04/03 06:38:07;;;;;;;24.60;13.13;;;;;;;-0.50;100.00;99246.09;4466633;31;35011;-73
2022/04/03 06:40:54;;;;;;;26.92;13.55;;;;;;;-0.25;100.00;99259.09;4466850;31;34300;-73
2022/04/03 06:43:41;;;;;;;29.45;13.77;;;;;;;-0.08;100.00;99263.63;4467571;32;35088;-74
2022/04/03 06:46:26;;;;;;;26.92;13.38;;;;;;;0.04;100.00;99260.78;4479634;32;35604;-74
2022/04/03 06:49:13;;;;;;;27.30;13.38;;;;;;;0.35;100.00;99260.06;4466196;32;34353;-74
2022/04/03 06:51:59;;;;;;;28.83;14.85;;;;;;;0.61;100.00;99263.03;4466659;32;34648;-75
2022/04/03 06:54:46;;;;;;;29.35;16.12;;;;;;;0.36;100.00;99277.84;4466769;32;34239;-75
2022/04/03 06:57:32;;;;;;;33.78;17.08;;;;;;;-0.25;100.00;99280.62;4477553;32;34658;-75
2022/04/03 07:00:19;;;;;;;31.75;19.05;;;;;;;-0.41;100.00;99286.84;4465286;31;35828;-74
2022/04/03 07:03:05;;;;;;;32.95;17.42;;;;;;;-0.40;100.00;99284.97;4478780;31;34639;-74
2022/04/03 07:05:52;;;;;;;31.95;16.40;;;;;;;-0.28;100.00;99291.09;4467887;32;35098;-75
2022/04/03 07:08:38;;;;;;;34.80;18.60;;;;;;;0.04;100.00;99295.81;4477954;32;34670;-74
2022/04/03 07:11:25;;;;;;;34.63;17.75;;;;;;;-0.15;100.00;99301.47;4463859;31;34553;-74
2022/04/03 07:14:11;;;;;;;34.45;17.00;;;;;;;-0.24;100.00;99302.97;4454805;32;34583;-74
2022/04/03 07:16:57;;;;;;;42.20;21.98;;;;;;;0.22;100.00;99308.94;4464308;32;34201;-74
2022/04/03 07:19:43;;;;;;;40.65;19.73;;;;;;;-0.01;100.00;99313.50;4464852;31;34380;-74
2022/04/03 07:22:29;;;;;;;37.92;20.17;;;;;;;-0.02;100.00;99314.59;4465044;31;35984;-74
2022/04/03 07:25:16;;;;;;;43.75;22.80;;;;;;;-0.05;100.00;99316.97;4476284;32;34565;-74
2022/04/03 07:28:02;;;;;;;40.22;24.42;;;;;;;0.24;100.00;99331.09;4478193;32;34433;-74
2022/04/03 07:30:48;;;;;;;49.50;22.15;;;;;;;-0.03;100.00;99334.53;4476877;31;35659;-74
2022/04/03 07:33:36;;;;;;;39.30;22.45;;;;;;;0.06;100.00;99334.06;4474910;31;35936;-73
2022/04/03 07:36:22;;;;;;;35.25;19.42;;;;;;;0.06;100.00;99342.16;4476968;31;34880;-74
2022/04/03 07:39:12;;;;;;;45.75;20.60;;;;;;;0.21;100.00;99347.75;4479101;32;35371;-73
2022/04/03 07:41:59;;;;;;;37.80;19.60;;;;;;;0.10;100.00;99352.19;4455442;32;35503;-73
2022/04/03 07:44:45;;;;;;;35.17;17.10;;;;;;;0.30;100.00;99365.09;4465663;32;35935;-72
2022/04/03 07:47:31;;;;;;;39.10;18.77;;;;;;;0.22;100.00;99360.97;4455270;32;34573;-73
2022/04/03 07:50:18;;;;;;;29.17;16.15;;;;;;;0.04;100.00;99376.63;4467535;32;34774;-73
2022/04/03 07:53:08;;;;;;;34.88;16.33;;;;;;;0.29;100.00;99376.16;4465572;32;35993;-72
2022/04/03 07:55:54;;;;;;;36.85;19.23;;;;;;;0.19;100.00;99376.81;4478856;31;34626;-74
2022/04/03 07:58:40;;;;;;;34.08;16.77;;;;;;;0.13;100.00;99384.00;4479146;32;34458;-73
2022/04/03 08:01:28;;;;;;;26.52;15.63;;;;;;;0.29;100.00;99387.75;4479676;32;35187;-75
2022/04/03 08:04:15;;;;;;;30.15;16.45;;;;;;;0.37;100.00;99384.63;4466191;32;35406;-74
2022/04/03 08:07:01;;;;;;;27.37;15.30;;;;;;;0.34;100.00;99392.38;4477869;32;33908;-74
2022/04/03 08:09:47;;;;;;;28.10;15.98;;;;;;;0.49;100.00;99402.56;4479105;31;34509;-74
2022/04/03 08:12:38;;;;;;;29.02;15.02;;;;;;;0.68;100.00;99398.44;4479118;32;34465;-74
2022/04/03 08:15:30;;;;;;;38.40;17.27;;;;;;;0.49;100.00;99395.28;4455220;32;34189;-75
2022/04/03 08:18:16;;;;;;;25.37;14.35;;;;;;;0.50;100.00;99398.78;4465103;31;36092;-75
2022/04/03 08:21:04;;;;;;;26.25;12.75;;;;;;;0.40;100.00;99416.47;4465525;32;34084;-75
2022/04/03 08:23:51;;;;;;;35.05;16.70;;;;;;;0.61;100.00;99420.22;4478210;32;35150;-75
2022/04/03 08:26:38;;;;;;;29.27;15.50;;;;;;;0.67;100.00;99423.78;4466455;32;34584;-76
2022/04/03 08:29:24;;;;;;;27.60;13.13;;;;;;;0.55;100.00;99417.72;4476546;32;36174;-76
2022/04/03 08:32:12;;;;;;;30.80;15.05;;;;;;;0.70;100.00;99425.19;4478749;32;34881;-75
2022/04/03 08:34:59;;;;;;;26.65;14.68;;;;;;;0.94;100.00;99436.50;4467494;32;35227;-76
2022/04/03 08:37:48;;;;;;;29.70;13.25;;;;;;;0.81;100.00;99433.12;4451086;32;35621;-75
2022/04/03 08:40:36;;;;;;;26.08;13.52;;;;;;;0.43;100.00;99442.91;4468699;32;34905;-74
2022/04/03 08:43:23;;;;;;;26.02;13.55;;;;;;;0.65;100.00;99448.31;4452446;32;35335;-74
2022/04/03 08:46:11;;;;;;;27.42;13.77;;;;;;;0.54;100.00;99445.72;4477250;32;33713;-73
2022/04/03 08:49:01;;;;;;;25.42;12.93;;;;;;;0.89;100.00;99448.06;4478875;32;34611;-73
2022/04/03 08:51:48;;;;;;;25.58;13.05;;;;;;;1.16;100.00;99447.28;4467738;32;35935;-73
2022/04/03 08:54:37;;;;;;;23.83;12.63;;;;;;;0.78;100.00;99440.91;4457791;32;34230;-74
2022/04/03 08:57:24;;;;;;;23.80;12.15;;;;;;;0.92;100.00;99452.16;4467141;32;33820;-74
2022/04/03 09:00:13;;;;;;;28.27;14.75;;;;;;;1.01;100.00;99450.63;4467375;32;34579;-74
2022/04/03 09:03:03;;;;;;;29.23;14.35;;;;;;;0.85;100.00;99455.84;4455002;32;34975;-75
2022/04/03 09:06:12;;;;;;;24.48;13.27;;;;;;;0.84;100.00;99459.59;4478152;32;34667;-74
2022/04/03 09:08:59;;;;;;;21.20;12.73;;;;;;;1.31;100.00;99447.44;4447357;32;33941;-74
2022/04/03 09:11:45;;;;;;;22.80;13.60;;;;;;;1.55;100.00;99448.75;4469934;32;34194;-74
2022/04/03 09:14:34;;;;;;;23.90;12.55;;;;;;;1.05;100.00;99457.12;4469254;32;34925;-74
2022/04/03 09:17:42;;;;;;;21.85;12.15;;;;;;;1.87;100.00;99449.81;4480638;31;35467;-75
2022/04/03 09:20:31;;;;;;;22.02;13.10;;;;;;;1.52;99.25;99464.66;4479882;32;34253;-76
2022/04/03 09:23:18;;;;;;;28.30;13.40;;;;;;;1.76;98.50;99468.63;4465832;31;34656;-76
2022/04/03 09:26:15;;;;;;;19.35;12.25;;;;;;;1.70;98.70;99472.38;4467451;32;35024;-76
2022/04/03 09:29:15;;;;;;;23.90;11.70;;;;;;;2.13;98.68;99475.94;4468921;32;33765;-74
2022/04/03 09:32:02;;;;;;;21.20;12.77;;;;;;;2.05;96.16;99473.75;4446501;31;35511;-76
2022/04/03 09:34:50;;;;;;;21.98;12.37;;;;;;;2.32;98.61;99479.06;4467851;32;34278;-76
2022/04/03 09:37:37;;;;;;;21.35;12.30;;;;;;;2.39;96.73;99481.53;4457770;32;35955;-75
2022/04/03 09:40:31;;;;;;;22.77;13.30;;;;;;;1.94;95.38;99482.84;4478130;31;34351;-75
2022/04/03 09:43:18;;;;;;;23.90;12.98;;;;;;;2.16;95.31;99488.97;4479465;31;35079;-75
2022/04/03 09:46:13;;;;;;;20.75;10.68;;;;;;;2.06;94.08;99488.88;4480957;31;34632;-75
2022/04/03 09:49:00;;;;;;;23.25;10.52;;;;;;;2.24;95.26;99487.66;4468938;32;34619;-73
2022/04/03 09:51:48;;;;;;;22.30;13.68;;;;;;;2.54;91.33;99486.25;4469062;32;34256;-74
2022/04/03 09:54:38;;;;;;;20.25;10.52;;;;;;;2.50;92.54;99494.03;4479958;32;34287;-74
2022/04/03 09:57:24;;;;;;;20.65;11.30;;;;;;;2.23;92.47;99489.56;4453667;32;34611;-73
2022/04/03 10:00:11;;;;;;;19.55;11.40;;;;;;;2.21;94.45;99499.81;4468529;31;34542;-73
2022/04/03 10:02:59;;;;;;;21.33;11.18;;;;;;;2.46;92.49;99501.06;4478682;32;34626;-73
2022/04/03 10:05:45;;;;;;;18.02;11.82;;;;;;;3.22;88.27;99506.03;4467228;32;34986;-73
2022/04/03 10:08:32;;;;;;;19.77;11.18;;;;;;;3.00;89.13;99506.22;4466518;31;35114;-71
2022/04/03 10:11:19;;;;;;;17.73;10.30;;;;;;;2.82;92.09;99506.69;4456800;32;34726;-74
2022/04/03 10:14:06;;;;;;;18.42;11.10;;;;;;;3.11;85.44;99510.59;4468122;32;35963;-73
2022/04/03 10:16:53;;;;;;;20.25;11.68;;;;;;;2.79;86.02;99520.72;4454833;32;33657;-71
2022/04/03 10:19:40;;;;;;;20.30;10.70;;;;;;;2.97;85.75;99514.88;4480229;32;34571;-73
2022/04/03 10:22:29;;;;;;;20.30;10.65;;;;;;;3.25;84.38;99518.22;4467769;32;34856;-73
2022/04/03 10:25:20;;;;;;;18.80;10.48;;;;;;;3.41;85.19;99510.94;4466981;32;35429;-72
2022/04/03 10:28:07;;;;;;;17.75;10.95;;;;;;;3.23;82.29;99521.19;4467317;32;34996;-72
2022/04/03 10:31:06;;;;;;;18.55;10.65;;;;;;;2.66;81.37;99514.69;4478497;31;35127;-72
2022/04/03 10:33:53;;;;;;;17.05;12.15;;;;;;;3.09;79.91;99522.75;4469851;32;34988;-74
2022/04/03 10:36:39;;;;;;;17.65;9.98;;;;;;;2.85;80.69;99535.94;4457567;32;34574;-73
2022/04/03 10:39:27;;;;;;;17.33;10.68;;;;;;;3.09;81.18;99526.28;4468008;32;34759;-73
2022/04/03 10:42:15;;;;;;;19.83;12.88;;;;;;;3.38;81.32;99523.13;4453780;32;34644;-75
2022/04/03 10:45:11;;;;;;;16.85;9.50;;;;;;;3.25;75.25;99535.28;4469479;31;34836;-75
2022/04/03 10:48:19;;;;;;;18.98;10.15;;;;;;;3.54;76.26;99532.12;4480497;31;35514;-75
2022/04/03 10:51:33;;;;;;;17.30;10.13;;;;;;;3.54;75.90;99532.12;4480370;31;34154;-73
2022/04/03 10:54:29;;;;;;;16.27;11.00;;;;;;;3.64;75.61;99536.75;4467428;32;34291;-74
2022/04/03 10:57:39;;;;;;;15.93;8.43;;;;;;;3.54;73.13;99530.22;4477883;32;34963;-75
2022/04/03 11:00:25;;;;;;;16.27;9.13;;;;;;;3.68;73.38;99516.97;4463916;32;34634;-75
2022/04/03 11:03:14;;;;;;;16.75;10.57;;;;;;;4.08;72.37;99525.44;4466125;32;34224;-76
2022/04/03 11:06:23;;;;;;;16.48;9.30;;;;;;;3.79;71.88;99534.88;4479273;32;34694;-75
2022/04/03 11:09:23;;;;;;;17.92;10.48;;;;;;;3.57;74.96;99543.25;4457019;32;34992;-77
2022/04/03 11:12:09;;;;;;;18.83;9.30;;;;;;;3.62;74.15;99538.94;4479081;32;34387;-77
2022/04/03 11:14:57;;;;;;;15.45;7.85;;;;;;;3.97;75.06;99538.16;4467465;32;34186;-78
2022/04/03 11:17:52;;;;;;;16.55;10.15;;;;;;;4.37;70.60;99539.25;4466491;31;35635;-79
2022/04/03 11:20:42;;;;;;;17.77;9.48;;;;;;;4.13;69.84;99552.56;4468493;32;35577;-77
2022/04/03 11:23:38;;;;;;;17.33;9.02;;;;;;;4.16;69.14;99549.31;4468092;31;33588;-78
2022/04/03 11:26:27;;;;;;;14.68;7.65;;;;;;;4.65;70.67;99556.88;4456201;32;34007;-77
2022/04/03 11:29:22;;;;;;;14.18;8.10;;;;;;;4.78;66.85;99556.31;4446756;32;35472;-75
2022/04/03 11:32:10;;;;;;;15.90;9.35;;;;;;;4.92;66.51;99561.94;4456785;32;35056;-80
2022/04/03 11:35:01;;;;;;;15.50;8.52;;;;;;;4.40;66.60;99569.34;4467120;32;34588;-77
2022/04/03 11:37:57;;;;;;;14.10;8.25;;;;;;;4.28;66.04;99560.69;4468157;32;34228;-77
2022/04/03 11:40:47;;;;;;;19.55;8.70;;;;;;;4.59;69.95;99574.25;4457842;32;34579;-75
2022/04/03 11:43:35;;;;;;;17.20;9.82;;;;;;;4.08;67.97;99560.69;4468143;32;35625;-77
2022/04/03 11:46:22;;;;;;;16.08;7.80;;;;;;;3.89;67.46;99566.59;4447063;31;35596;-77
2022/04/03 11:49:13;;;;;;;14.95;8.50;;;;;;;3.94;68.20;99568.53;4477870;31;35093;-78
2022/04/03 11:52:09;;;;;;;14.13;9.43;;;;;;;3.69;68.78;99580.13;4467794;32;35534;-79
2022/04/03 11:54:57;;;;;;;16.50;8.25;;;;;;;3.70;67.22;99565.47;4467194;32;35650;-76
2022/04/03 11:57:43;;;;;;;15.07;8.68;;;;;;;4.06;66.88;99564.47;4466283;32;33584;-77
2022/04/03 12:00:33;;;;;;;14.82;7.90;;;;;;;3.94;64.46;99574.75;4478324;32;35704;-78
2022/04/03 12:03:28;;;;;;;15.27;8.00;;;;;;;4.26;67.01;99562.84;4466993;32;35504;-77
2022/04/03 12:06:16;;;;;;;11.88;6.28;;;;;;;3.89;68.58;99577.44;4465763;32;34732;-77
2022/04/03 12:09:10;;;;;;;15.30;8.52;;;;;;;4.44;65.90;99578.59;4479242;32;35689;-76
2022/04/03 12:12:04;;;;;;;15.93;8.80;;;;;;;4.39;65.79;99584.00;4463591;31;35145;-77
2022/04/03 12:14:50;;;;;;;15.25;8.15;;;;;;;3.70;66.44;99584.44;4468600;31;34277;-76
2022/04/03 12:17:41;;;;;;;18.05;8.02;;;;;;;3.85;64.88;99583.69;4454215;32;36012;-78
2022/04/03 12:20:34;;;;;;;14.32;8.13;;;;;;;4.25;63.70;99574.78;4481060;32;34365;-77
2022/04/03 12:23:24;;;;;;;13.75;7.37;;;;;;;5.03;60.86;99563.56;4481476;32;34047;-76
2022/04/03 12:26:13;;;;;;;16.05;7.05;;;;;;;4.81;58.73;99572.03;4479996;31;34697;-76
2022/04/03 12:29:00;;;;;;;14.90;8.10;;;;;;;5.27;58.86;99568.38;4467720;32;34911;-77
2022/04/03 12:31:59;;;;;;;14.23;7.87;;;;;;;5.26;58.36;99566.75;4468118;31;34652;-77
2022/04/03 12:34:50;;;;;;;12.27;7.82;;;;;;;5.43;58.50;99571.84;4468939;32;33995;-77
2022/04/03 12:37:40;;;;;;;13.77;7.90;;;;;;;5.26;55.62;99567.56;4478772;32;35567;-78
2022/04/03 12:40:26;;;;;;;11.52;7.15;;;;;;;5.21;54.89;99567.59;4469567;31;35899;-77
2022/04/03 12:43:14;;;;;;;14.68;7.25;;;;;;;4.93;55.28;99572.56;4479299;31;34120;-78
2022/04/03 12:46:03;;;;;;;14.93;7.68;;;;;;;4.94;55.19;99566.03;4468545;32;34365;-77
2022/04/03 12:48:51;;;;;;;12.25;7.00;;;;;;;5.34;54.52;99569.69;4457322;32;34610;-77
2022/04/03 12:51:47;;;;;;;15.10;7.35;;;;;;;5.45;54.61;99572.38;4459131;32;35979;-77
2022/04/03 12:54:41;;;;;;;13.23;6.90;;;;;;;5.41;55.79;99581.09;4469169;32;34165;-77
2022/04/03 13:00:34;;;;;;;14.63;6.75;;;;;;;5.73;54.26;99566.25;4480944;32;34182;-77